Time;durP1;ratioP1;P1;durP2;ratioP2;P2;SDS_P1;SDS_P2;PMS_P1;PMS_P2;Temp;Humidity;BMP_temperature;BMP_pressure;BME280_temperature;BME280_humidity;BME280_pressure;Samples;Min_cycle;Max_cycle;Signal;HPM_P1;HPM_P2
2023/06/04 00:01:27;;;;;;;3.30;1.50;;;;;;;-144.85;100.00;61331.59;5080197;28;33219;-72
2023/06/04 00:03:54;;;;;;;3.25;1.73;;;;;;;-144.85;100.00;61331.59;5077728;28;32914;-72
2023/06/04 00:06:21;;;;;;;2.88;1.70;;;;;;;-144.85;100.00;61331.59;5061867;28;30354;-72
2023/06/04 00:08:48;;;;;;;2.00;1.40;;;;;;;-144.85;100.00;61331.59;5096211;28;33472;-72
2023/06/04 00:11:16;;;;;;;5.40;1.40;;;;;;;-144.85;100.00;61331.59;5082891;28;31088;-71
2023/06/04 00:13:43;;;;;;;7.20;1.80;;;;;;;-144.85;100.00;61331.59;5095728;28;31919;-72
2023/06/04 00:16:10;;;;;;;3.65;1.55;;;;;;;-144.85;100.00;61331.59;5095992;28;30560;-72
2023/06/04 00:18:37;;;;;;;4.18;1.50;;;;;;;-144.85;100.00;61331.59;5076247;28;32393;-72
2023/06/04 00:21:04;;;;;;;3.55;1.55;;;;;;;-144.85;100.00;61331.59;5092099;28;32089;-72
2023/06/04 00:23:32;;;;;;;3.58;1.90;;;;;;;-144.85;100.00;61331.59;5097625;28;31834;-72
2023/06/04 00:25:59;;;;;;;4.60;1.80;;;;;;;-144.85;100.00;61331.59;5103845;28;31494;-72
2023/06/04 00:28:26;;;;;;;5.50;2.10;;;;;;;-144.85;100.00;61331.59;5096004;28;32451;-71
2023/06/04 00:30:53;;;;;;;3.60;1.60;;;;;;;-144.85;100.00;61331.59;5095662;28;32044;-71
2023/06/04 00:33:20;;;;;;;2.83;1.60;;;;;;;-144.85;100.00;61331.59;5081625;28;31327;-72
2023/06/04 00:35:47;;;;;;;2.53;1.50;;;;;;;-144.85;100.00;61331.59;5081422;28;30989;-72
2023/06/04 00:38:15;;;;;;;4.10;1.40;;;;;;;-144.85;100.00;61331.59;5061825;28;31551;-71
2023/06/04 00:40:42;;;;;;;2.45;1.42;;;;;;;-144.85;100.00;61331.59;5096185;28;32224;-71
2023/06/04 00:43:10;;;;;;;3.80;1.70;;;;;;;-144.85;100.00;61331.59;5064879;28;31519;-72
2023/06/04 00:45:37;;;;;;;7.20;1.75;;;;;;;-144.85;100.00;61331.59;5095615;28;31066;-72
2023/06/04 00:48:05;;;;;;;2.40;1.50;;;;;;;-144.85;100.00;61331.59;5077583;28;32444;-71
2023/06/04 00:50:33;;;;;;;2.88;1.55;;;;;;;-144.85;100.00;61331.59;5095897;28;32199;-71
2023/06/04 00:53:00;;;;;;;3.50;1.63;;;;;;;-144.85;100.00;61331.59;5061727;28;30726;-72
2023/06/04 00:55:28;;;;;;;3.78;1.70;;;;;;;-144.85;100.00;61331.59;5095099;28;31222;-71
2023/06/04 00:57:55;;;;;;;3.40;1.60;;;;;;;-144.85;100.00;61331.59;5097214;28;33908;-71
2023/06/04 01:00:22;;;;;;;5.65;1.65;;;;;;;-144.85;100.00;61331.59;5097621;28;31952;-72
2023/06/04 01:02:53;;;;;;;3.17;1.70;;;;;;;-144.85;100.00;61331.59;5098991;28;30681;-71
2023/06/04 01:05:36;;;;;;;3.40;1.60;;;;;;;-144.85;100.00;61331.59;5091255;28;30356;-71
2023/06/04 01:08:05;;;;;;;2.88;1.38;;;;;;;-144.85;100.00;61331.59;5097759;28;33601;-72
2023/06/04 01:10:32;;;;;;;6.30;1.52;;;;;;;-144.85;100.00;61331.59;5079875;28;32548;-72
2023/06/04 01:13:00;;;;;;;3.75;1.60;;;;;;;-144.85;100.00;61331.59;5098794;28;32864;-72
2023/06/04 01:15:27;;;;;;;3.35;1.80;;;;;;;-144.85;100.00;61331.59;5098548;28;32373;-71
2023/06/04 01:18:05;;;;;;;3.20;1.70;;;;;;;-144.85;100.00;61331.59;5063154;28;31781;-71
2023/06/04 01:20:41;;;;;;;3.50;1.55;;;;;;;-144.85;100.00;61331.59;5100907;28;31255;-72
2023/06/04 01:23:33;;;;;;;4.70;1.77;;;;;;;-144.85;100.00;61331.59;5078869;28;32381;-72
2023/06/04 01:26:03;;;;;;;3.25;1.50;;;;;;;-144.85;100.00;61331.59;5098101;28;31518;-72
2023/06/04 01:28:34;;;;;;;5.30;1.73;;;;;;;-144.85;100.00;61331.59;5048384;28;31019;-72
2023/06/04 01:31:03;;;;;;;4.32;1.92;;;;;;;-144.85;100.00;61331.59;5064322;28;31441;-72
2023/06/04 01:33:30;;;;;;;3.42;1.88;;;;;;;-144.85;100.00;61331.59;5100974;28;32280;-72
2023/06/04 01:35:58;;;;;;;2.90;1.80;;;;;;;-144.85;100.00;61331.59;5084546;28;31335;-72
2023/06/04 01:38:25;;;;;;;4.22;1.85;;;;;;;-144.85;100.00;61331.59;5097090;28;32361;-72
2023/06/04 01:40:56;;;;;;;2.72;1.60;;;;;;;-144.85;100.00;61331.59;5084265;28;30793;-72
2023/06/04 01:43:23;;;;;;;3.63;1.70;;;;;;;-144.85;100.00;61331.59;5088211;28;31422;-72
2023/06/04 01:45:50;;;;;;;3.33;1.70;;;;;;;-144.85;100.00;61331.59;5100052;28;32064;-72
2023/06/04 01:48:17;;;;;;;5.10;1.60;;;;;;;-144.85;100.00;61331.59;5079489;28;31632;-72
2023/06/04 01:50:44;;;;;;;6.35;1.77;;;;;;;-144.85;100.00;61331.59;5079308;28;30687;-72
2023/06/04 01:53:12;;;;;;;2.92;1.75;;;;;;;-144.85;100.00;61331.59;5048743;28;31964;-72
2023/06/04 01:55:39;;;;;;;3.28;1.80;;;;;;;-144.85;100.00;61331.59;5085275;28;31598;-72
2023/06/04 01:58:07;;;;;;;3.97;1.60;;;;;;;-144.85;100.00;61331.59;5100701;28;32126;-72
2023/06/04 02:00:34;;;;;;;4.35;1.90;;;;;;;-144.85;100.00;61331.59;5082823;28;31201;-72
2023/06/04 02:03:01;;;;;;;5.25;1.80;;;;;;;-144.85;100.00;61331.59;5077723;28;32654;-72
2023/06/04 02:05:29;;;;;;;4.70;1.90;;;;;;;-144.85;100.00;61331.59;5100803;28;31441;-72
2023/06/04 02:07:57;;;;;;;3.50;1.88;;;;;;;-144.85;100.00;61331.59;5098704;28;33310;-71
2023/06/04 02:10:24;;;;;;;3.35;1.80;;;;;;;-144.85;100.00;61331.59;5063494;28;31414;-72
2023/06/04 02:12:56;;;;;;;4.63;2.13;;;;;;;-144.85;100.00;61331.59;5048329;28;31207;-72
2023/06/04 02:15:25;;;;;;;4.50;2.05;;;;;;;-144.85;100.00;61331.59;5058935;28;31874;-72
2023/06/04 02:18:15;;;;;;;2.97;1.90;;;;;;;-144.85;100.00;61331.59;5097254;28;33386;-71
2023/06/04 02:20:47;;;;;;;5.43;1.90;;;;;;;-144.85;100.00;61331.59;5090421;28;32450;-72
2023/06/04 02:23:17;;;;;;;4.22;1.80;;;;;;;-144.85;100.00;61331.59;5087427;28;32692;-72
2023/06/04 02:25:45;;;;;;;3.30;1.90;;;;;;;-144.85;100.00;61331.59;5102207;28;31901;-72
2023/06/04 02:28:13;;;;;;;4.25;2.00;;;;;;;-144.85;100.00;61331.59;5097118;28;33990;-72
2023/06/04 02:30:40;;;;;;;4.60;2.15;;;;;;;-144.85;100.00;61331.59;5062652;28;31005;-72
2023/06/04 02:33:09;;;;;;;4.35;1.80;;;;;;;-144.85;100.00;61331.59;5094321;28;31876;-72
2023/06/04 02:35:37;;;;;;;4.35;1.80;;;;;;;-144.85;100.00;61331.59;5079183;28;31469;-72
2023/06/04 02:38:05;;;;;;;4.10;1.67;;;;;;;-144.85;100.00;61331.59;5095277;28;32385;-72
2023/06/04 02:40:32;;;;;;;4.13;1.90;;;;;;;-144.85;100.00;61331.59;5079657;28;32129;-72
2023/06/04 02:42:59;;;;;;;4.53;1.95;;;;;;;-144.85;100.00;61331.59;5099902;28;33024;-72
2023/06/04 02:45:28;;;;;;;5.18;1.90;;;;;;;-144.85;100.00;61331.59;5066413;28;31521;-72
2023/06/04 02:47:55;;;;;;;3.22;1.52;;;;;;;-144.85;100.00;61331.59;5081824;28;32155;-72
2023/06/04 02:50:22;;;;;;;5.00;1.92;;;;;;;-144.85;100.00;61331.59;5070158;28;31123;-72
2023/06/04 02:52:50;;;;;;;3.63;2.10;;;;;;;-144.85;100.00;61331.59;5096245;28;31819;-72
2023/06/04 02:55:17;;;;;;;4.88;2.10;;;;;;;-144.85;100.00;61331.59;5097191;28;30514;-72
2023/06/04 02:57:44;;;;;;;4.30;1.88;;;;;;;-144.85;100.00;61331.59;5088578;28;32368;-72
2023/06/04 03:00:13;;;;;;;3.75;1.90;;;;;;;-144.85;100.00;61331.59;5109674;28;33608;-71
2023/06/04 03:02:46;;;;;;;2.80;1.85;;;;;;;-144.85;100.00;61331.59;5085045;28;30884;-71
2023/06/04 03:05:17;;;;;;;3.78;1.88;;;;;;;-144.85;100.00;61331.59;5082035;28;30692;-70
2023/06/04 03:07:46;;;;;;;3.90;1.83;;;;;;;-144.85;100.00;61331.59;5097145;28;33949;-71
2023/06/04 03:10:15;;;;;;;4.18;1.73;;;;;;;-144.85;100.00;61331.59;5064674;28;31251;-71
2023/06/04 03:12:42;;;;;;;4.22;2.00;;;;;;;-144.85;100.00;61331.59;5095796;28;32084;-70
2023/06/04 03:15:10;;;;;;;5.15;1.98;;;;;;;-144.85;100.00;61331.59;5094214;28;31097;-71
2023/06/04 03:17:37;;;;;;;3.38;2.00;;;;;;;-144.85;100.00;61331.59;5076240;28;31494;-71
2023/06/04 03:20:06;;;;;;;3.65;1.83;;;;;;;-144.85;100.00;61331.59;5059764;28;32237;-71
2023/06/04 03:22:35;;;;;;;3.92;2.00;;;;;;;-144.85;100.00;61331.59;5060850;28;31126;-71
2023/06/04 03:25:03;;;;;;;5.03;2.30;;;;;;;-144.85;100.00;61331.59;5095071;28;31350;-71
2023/06/04 03:27:32;;;;;;;4.43;1.80;;;;;;;-144.85;100.00;61331.59;5077150;28;32541;-71
2023/06/04 03:30:00;;;;;;;3.88;2.03;;;;;;;-144.85;100.00;61331.59;5061837;28;31272;-71
2023/06/04 03:32:33;;;;;;;3.80;1.83;;;;;;;-144.85;100.00;61331.59;5079913;28;31921;-70
2023/06/04 03:35:01;;;;;;;4.38;1.60;;;;;;;-144.85;100.00;61331.59;5096358;28;32246;-71
2023/06/04 03:37:28;;;;;;;2.95;2.00;;;;;;;-144.85;100.00;61331.59;5098506;28;32600;-71
2023/06/04 03:39:55;;;;;;;4.18;1.88;;;;;;;-144.85;100.00;61331.59;5106344;28;32070;-71
2023/06/04 03:42:22;;;;;;;4.05;2.00;;;;;;;-144.85;100.00;61331.59;5097093;28;32609;-71
2023/06/04 03:44:50;;;;;;;3.28;1.95;;;;;;;-144.85;100.00;61331.59;5098255;28;31617;-71
2023/06/04 03:47:17;;;;;;;8.40;2.00;;;;;;;-144.85;100.00;61331.59;5081497;28;31344;-71
2023/06/04 03:49:44;;;;;;;2.85;2.00;;;;;;;-144.85;100.00;61331.59;5063617;28;31146;-71
2023/06/04 03:52:13;;;;;;;2.80;1.80;;;;;;;-144.85;100.00;61331.59;5080819;28;32497;-71
2023/06/04 03:54:41;;;;;;;3.30;2.08;;;;;;;-144.85;100.00;61331.59;5078739;28;31653;-71
2023/06/04 03:57:08;;;;;;;3.60;2.03;;;;;;;-144.85;100.00;61331.59;5063023;28;31668;-71
2023/06/04 03:59:36;;;;;;;3.53;2.00;;;;;;;-144.85;100.00;61331.59;5060627;28;32132;-71
2023/06/04 04:02:05;;;;;;;3.70;2.10;;;;;;;-144.85;100.00;61331.59;5098495;28;31846;-70
2023/06/04 04:04:33;;;;;;;3.38;2.03;;;;;;;-144.85;100.00;61331.59;5046461;28;30602;-71
2023/06/04 04:07:01;;;;;;;4.70;2.17;;;;;;;-144.85;100.00;61331.59;5081681;28;31469;-71
2023/06/04 04:09:29;;;;;;;4.47;1.92;;;;;;;-144.85;100.00;61331.59;5095806;28;33043;-70
2023/06/04 04:11:56;;;;;;;4.82;2.15;;;;;;;-144.85;100.00;61331.59;5095991;28;33101;-71
2023/06/04 04:14:23;;;;;;;3.20;2.03;;;;;;;-144.85;100.00;61331.59;5076989;28;30480;-71
2023/06/04 04:16:50;;;;;;;10.05;2.10;;;;;;;-144.85;100.00;61331.59;5073258;28;31774;-71
2023/06/04 04:19:18;;;;;;;4.03;2.10;;;;;;;-144.85;100.00;61331.59;5090137;28;31171;-72
2023/06/04 04:21:48;;;;;;;4.32;1.92;;;;;;;-144.85;100.00;61331.59;5079633;28;31531;-71
2023/06/04 04:24:28;;;;;;;4.00;2.10;;;;;;;-144.85;100.00;61331.59;5047968;28;31644;-71
2023/06/04 04:27:03;;;;;;;4.20;1.90;;;;;;;-144.85;100.00;61331.59;5076697;28;31364;-71
2023/06/04 04:29:34;;;;;;;4.43;2.28;;;;;;;-144.85;100.00;61331.59;5080158;28;31337;-71
2023/06/04 04:32:11;;;;;;;2.38;1.63;;;;;;;-144.85;100.00;61331.59;5062604;28;32339;-71
2023/06/04 04:34:54;;;;;;;2.70;2.10;;;;;;;-144.85;100.00;61331.59;5048633;28;31532;-71
2023/06/04 04:37:31;;;;;;;2.75;1.80;;;;;;;-144.85;100.00;61331.59;5093738;28;33151;-71
2023/06/04 04:39:59;;;;;;;4.80;2.17;;;;;;;-144.85;100.00;61331.59;5081651;28;31199;-71
2023/06/04 04:42:30;;;;;;;4.20;1.83;;;;;;;-144.85;100.00;61331.59;5064885;28;30588;-71
2023/06/04 04:44:58;;;;;;;3.03;1.92;;;;;;;-144.85;100.00;61331.59;5080818;28;30536;-71
2023/06/04 04:47:26;;;;;;;3.70;1.85;;;;;;;-144.85;100.00;61331.59;5082324;28;31795;-71
2023/06/04 04:49:53;;;;;;;4.07;2.08;;;;;;;-144.85;100.00;61331.59;5082572;28;31657;-70
2023/06/04 04:52:20;;;;;;;7.72;2.08;;;;;;;-144.85;100.00;61331.59;5086347;28;30643;-71
2023/06/04 04:54:48;;;;;;;7.10;2.30;;;;;;;-144.85;100.00;61331.59;5068101;28;30628;-71
2023/06/04 04:57:15;;;;;;;3.83;1.90;;;;;;;-144.85;100.00;61331.59;5096889;28;31742;-71
2023/06/04 04:59:46;;;;;;;3.50;1.70;;;;;;;-144.85;100.00;61331.59;5088500;28;31439;-71
2023/06/04 05:02:14;;;;;;;4.22;1.92;;;;;;;-144.85;100.00;61331.59;5082694;28;30923;-71
2023/06/04 05:04:41;;;;;;;3.40;1.88;;;;;;;-144.85;100.00;61331.59;5098748;28;32182;-71
2023/06/04 05:07:09;;;;;;;3.30;1.70;;;;;;;-144.85;100.00;61331.59;5063173;28;32489;-71
2023/06/04 05:09:37;;;;;;;4.15;1.95;;;;;;;-144.85;100.00;61331.59;5101613;28;32526;-71
2023/06/04 05:12:05;;;;;;;3.33;2.08;;;;;;;-144.85;100.00;61331.59;5064017;28;30203;-71
2023/06/04 05:14:35;;;;;;;4.45;1.98;;;;;;;-144.85;100.00;61331.59;5069273;28;31662;-71
2023/06/04 05:17:06;;;;;;;5.38;2.10;;;;;;;-144.85;100.00;61331.59;5064910;28;30346;-71
2023/06/04 05:19:34;;;;;;;4.15;2.15;;;;;;;-144.85;100.00;61331.59;5070319;28;30137;-71
2023/06/04 05:22:02;;;;;;;4.35;2.40;;;;;;;-144.85;100.00;61331.59;5082114;28;31698;-71
2023/06/04 05:24:31;;;;;;;2.97;1.90;;;;;;;-144.85;100.00;61331.59;5061978;28;31143;-71
2023/06/04 05:27:03;;;;;;;5.03;2.20;;;;;;;-144.85;100.00;61331.59;5084227;28;31553;-71
2023/06/04 05:29:31;;;;;;;5.45;1.80;;;;;;;-144.85;100.00;61331.59;5079584;28;32803;-71
2023/06/04 05:31:58;;;;;;;3.80;2.03;;;;;;;-144.85;100.00;61331.59;5098803;28;32195;-72
2023/06/04 05:34:26;;;;;;;3.22;2.13;;;;;;;-144.85;100.00;61331.59;5083041;28;30473;-72
2023/06/04 05:36:54;;;;;;;4.43;2.20;;;;;;;-144.85;100.00;61331.59;5092117;28;31448;-71
2023/06/04 05:39:24;;;;;;;4.40;2.13;;;;;;;-144.85;100.00;61331.59;5070948;28;31005;-71
2023/06/04 05:41:57;;;;;;;5.15;2.10;;;;;;;-144.85;100.00;61331.59;5080898;28;31129;-72
2023/06/04 05:44:24;;;;;;;2.83;1.90;;;;;;;-144.85;100.00;61331.59;5102173;28;32249;-72
2023/06/04 05:46:52;;;;;;;4.03;2.42;;;;;;;-144.85;100.00;61331.59;5092730;28;31466;-72
2023/06/04 05:49:19;;;;;;;3.53;2.28;;;;;;;-144.85;100.00;61331.59;5080832;28;33344;-72
2023/06/04 05:51:47;;;;;;;5.47;2.63;;;;;;;-144.85;100.00;61331.59;5099418;28;31993;-72
2023/06/04 05:54:14;;;;;;;4.40;2.22;;;;;;;-144.85;100.00;61331.59;5066994;28;32137;-72
2023/06/04 05:56:43;;;;;;;4.38;2.25;;;;;;;-144.85;100.00;61331.59;5062069;28;31845;-72
2023/06/04 05:59:11;;;;;;;5.47;2.20;;;;;;;-144.85;100.00;61331.59;5066665;28;31336;-73
2023/06/04 06:01:38;;;;;;;2.88;2.08;;;;;;;-144.85;100.00;61331.59;5094081;28;32752;-72
2023/06/04 06:04:05;;;;;;;3.58;2.10;;;;;;;-144.85;100.00;61331.59;5080610;28;31782;-73
2023/06/04 06:06:34;;;;;;;6.57;2.65;;;;;;;-144.85;100.00;61331.59;5079558;28;32818;-73
2023/06/04 06:09:02;;;;;;;4.65;2.00;;;;;;;-144.85;100.00;61331.59;5086254;28;31358;-73
2023/06/04 06:11:30;;;;;;;4.18;2.28;;;;;;;-144.85;100.00;61331.59;5077277;28;31868;-74
2023/06/04 06:13:57;;;;;;;4.32;2.10;;;;;;;-144.85;100.00;61331.59;5059651;28;31915;-73
2023/06/04 06:16:25;;;;;;;3.75;2.30;;;;;;;-144.85;100.00;61331.59;5093998;28;31613;-73
2023/06/04 06:18:52;;;;;;;4.55;2.20;;;;;;;-144.85;100.00;61331.59;5089061;28;31057;-74
2023/06/04 06:21:20;;;;;;;4.45;2.00;;;;;;;-144.85;100.00;61331.59;5098688;28;32593;-74
2023/06/04 06:23:47;;;;;;;3.28;2.20;;;;;;;-144.85;100.00;61331.59;5070846;28;31487;-74
2023/06/04 06:26:15;;;;;;;4.35;2.40;;;;;;;-144.85;100.00;61331.59;5059809;28;31642;-74
2023/06/04 06:28:49;;;;;;;4.97;2.33;;;;;;;-144.85;100.00;61331.59;5081588;28;32064;-74
2023/06/04 06:31:17;;;;;;;4.05;2.20;;;;;;;-144.85;100.00;61331.59;5079327;28;31942;-74
2023/06/04 06:33:44;;;;;;;2.75;2.10;;;;;;;-144.85;100.00;61331.59;5098226;28;31289;-74
2023/06/04 06:36:18;;;;;;;7.05;2.33;;;;;;;-144.85;100.00;61331.59;5098198;28;32288;-74
2023/06/04 06:38:46;;;;;;;7.50;2.28;;;;;;;-144.85;100.00;61331.59;5097182;28;32789;-74
2023/06/04 06:41:13;;;;;;;3.90;2.22;;;;;;;-144.85;100.00;61331.59;5097837;28;32918;-74
2023/06/04 06:43:40;;;;;;;3.75;2.30;;;;;;;-144.85;100.00;61331.59;5068930;28;31387;-74
2023/06/04 06:46:08;;;;;;;4.70;2.08;;;;;;;-144.85;100.00;61331.59;5099822;28;32968;-74
2023/06/04 06:48:35;;;;;;;4.18;2.10;;;;;;;-144.85;100.00;61331.59;5107264;28;32022;-73
2023/06/04 06:51:03;;;;;;;4.15;2.45;;;;;;;-144.85;100.00;61331.59;5098610;28;32307;-73
2023/06/04 06:53:30;;;;;;;4.50;2.25;;;;;;;-144.85;100.00;61331.59;5098260;28;31818;-73
2023/06/04 06:55:57;;;;;;;4.65;2.30;;;;;;;-144.85;100.00;61331.59;5097519;28;32210;-73
2023/06/04 06:58:24;;;;;;;3.90;2.30;;;;;;;-144.85;100.00;61331.59;5097083;28;33226;-73
2023/06/04 07:00:51;;;;;;;7.00;2.17;;;;;;;-144.85;100.00;61331.59;5098207;28;31593;-73
2023/06/04 07:03:18;;;;;;;7.07;2.35;;;;;;;-144.85;100.00;61331.59;5095704;28;30588;-73
2023/06/04 07:05:46;;;;;;;3.65;2.20;;;;;;;-144.85;100.00;61331.59;5098396;28;33400;-73
2023/06/04 07:08:13;;;;;;;3.55;2.30;;;;;;;-144.85;100.00;61331.59;5099061;28;32783;-73
2023/06/04 07:10:40;;;;;;;5.30;2.17;;;;;;;-144.85;100.00;61331.59;5098604;28;31843;-73
2023/06/04 07:13:07;;;;;;;4.28;2.50;;;;;;;-144.85;100.00;61331.59;5085439;28;32952;-74
2023/06/04 07:15:35;;;;;;;3.47;2.10;;;;;;;-144.85;100.00;61331.59;5079791;28;32447;-74
2023/06/04 07:18:02;;;;;;;5.05;2.33;;;;;;;-144.85;100.00;61331.59;5088855;28;32224;-74
2023/06/04 07:20:30;;;;;;;3.10;2.40;;;;;;;-144.85;100.00;61331.59;5089233;28;32904;-73
2023/06/04 07:22:57;;;;;;;5.30;2.20;;;;;;;-144.85;100.00;61331.59;5098004;28;32288;-73
2023/06/04 07:25:25;;;;;;;3.95;2.08;;;;;;;-144.85;100.00;61331.59;5096925;28;32372;-74
2023/06/04 07:27:52;;;;;;;3.25;2.30;;;;;;;-144.85;100.00;61331.59;5097603;28;32909;-73
2023/06/04 07:30:20;;;;;;;5.03;2.28;;;;;;;-144.85;100.00;61331.59;5098314;28;32392;-73
2023/06/04 07:32:47;;;;;;;3.45;2.00;;;;;;;-144.85;100.00;61331.59;5108655;28;31615;-74
2023/06/04 07:35:15;;;;;;;4.60;2.20;;;;;;;-144.85;100.00;61331.59;5097575;28;32357;-74
2023/06/04 07:37:44;;;;;;;4.25;1.98;;;;;;;-144.85;100.00;61331.59;5078804;28;32703;-74
2023/06/04 07:40:12;;;;;;;3.17;2.20;;;;;;;-144.85;100.00;61331.59;5090691;28;30952;-74
2023/06/04 07:42:40;;;;;;;4.07;2.15;;;;;;;-144.85;100.00;61331.59;5111008;28;31230;-74
2023/06/04 07:45:08;;;;;;;6.00;2.15;;;;;;;-144.85;100.00;61331.59;5096380;28;32464;-74
2023/06/04 07:47:36;;;;;;;4.00;2.20;;;;;;;-144.85;100.00;61331.59;5066823;28;33096;-74
2023/06/04 07:50:05;;;;;;;3.33;2.30;;;;;;;-144.85;100.00;61331.59;5090824;28;32144;-74
2023/06/04 07:52:43;;;;;;;6.90;2.60;;;;;;;-144.85;100.00;61331.59;5083911;28;31465;-74
2023/06/04 07:55:10;;;;;;;3.53;2.03;;;;;;;-144.85;100.00;61331.59;5096425;28;32531;-74
2023/06/04 07:57:37;;;;;;;3.50;1.92;;;;;;;-144.85;100.00;61331.59;5096735;28;33223;-74
2023/06/04 08:00:05;;;;;;;4.43;2.10;;;;;;;-144.85;100.00;61331.59;5096933;28;31778;-74
2023/06/04 08:02:37;;;;;;;3.50;2.13;;;;;;;-144.85;100.00;61331.59;5096880;28;32898;-74
2023/06/04 08:05:05;;;;;;;4.80;2.05;;;;;;;-144.85;100.00;61331.59;5104333;28;32377;-74
2023/06/04 08:07:32;;;;;;;5.38;2.13;;;;;;;-144.85;100.00;61331.59;5082812;28;30978;-74
2023/06/04 08:09:59;;;;;;;3.72;2.00;;;;;;;-144.85;100.00;61331.59;5097211;28;31850;-74
2023/06/04 08:12:26;;;;;;;4.57;2.00;;;;;;;-144.85;100.00;61331.59;5096917;28;31282;-74
2023/06/04 08:14:56;;;;;;;3.80;1.88;;;;;;;-144.85;100.00;61331.59;5083367;28;32801;-74
2023/06/04 08:17:24;;;;;;;5.65;2.28;;;;;;;-144.85;100.00;61331.59;5105783;28;32308;-74
2023/06/04 08:19:51;;;;;;;6.05;2.10;;;;;;;-144.85;100.00;61331.59;5114315;28;33414;-74
2023/06/04 08:22:18;;;;;;;3.70;1.77;;;;;;;-144.85;100.00;61331.59;5103467;28;31118;-74
2023/06/04 08:24:45;;;;;;;2.95;1.42;;;;;;;-144.85;100.00;61331.59;5058186;28;32934;-73
2023/06/04 08:27:12;;;;;;;2.78;1.52;;;;;;;-144.85;100.00;61331.59;5100239;28;32138;-74
2023/06/04 08:29:40;;;;;;;5.47;1.98;;;;;;;-144.85;100.00;61331.59;5075494;28;30482;-74
2023/06/04 08:32:07;;;;;;;2.95;1.63;;;;;;;-144.85;100.00;61331.59;5093253;28;30467;-74
2023/06/04 08:34:35;;;;;;;3.42;1.60;;;;;;;-144.85;100.00;61331.59;5066493;28;32922;-74
2023/06/04 08:37:02;;;;;;;3.38;1.52;;;;;;;-144.85;100.00;61331.59;5103351;28;32091;-74
2023/06/04 08:39:30;;;;;;;6.45;1.63;;;;;;;-144.85;100.00;61331.59;5084588;28;32852;-75
2023/06/04 08:42:03;;;;;;;4.90;1.60;;;;;;;-144.85;100.00;61331.59;5103187;28;31171;-74
2023/06/04 08:44:30;;;;;;;4.25;1.58;;;;;;;-144.85;100.00;61331.59;5099652;28;32213;-74
2023/06/04 08:47:05;;;;;;;2.78;1.50;;;;;;;-144.85;100.00;61331.59;5103909;28;33189;-74
2023/06/04 08:49:38;;;;;;;4.50;1.50;;;;;;;-144.85;100.00;61331.59;5115448;28;32637;-74
2023/06/04 08:52:06;;;;;;;4.40;1.50;;;;;;;-144.85;100.00;61331.59;5085103;28;30644;-74
2023/06/04 08:54:33;;;;;;;4.05;1.67;;;;;;;-144.85;100.00;61331.59;5102926;28;32266;-74
2023/06/04 08:57:02;;;;;;;3.42;1.70;;;;;;;-144.85;100.00;61331.59;5100389;28;32416;-74
2023/06/04 08:59:29;;;;;;;2.20;1.30;;;;;;;-144.85;100.00;61331.59;5103775;28;32403;-74
2023/06/04 09:01:57;;;;;;;2.10;1.20;;;;;;;-144.85;100.00;61331.59;5096628;28;31622;-74
2023/06/04 09:04:25;;;;;;;3.15;1.30;;;;;;;-144.85;100.00;61331.59;5084504;28;33366;-74
2023/06/04 09:06:53;;;;;;;3.55;1.15;;;;;;;-144.85;100.00;61331.59;5085279;28;33230;-74
2023/06/04 09:09:23;;;;;;;3.03;1.40;;;;;;;-144.85;100.00;61331.59;5102803;28;32047;-74
2023/06/04 09:11:52;;;;;;;2.90;1.20;;;;;;;-144.85;100.00;61331.59;5102932;28;33111;-74
2023/06/04 09:14:20;;;;;;;4.03;1.40;;;;;;;-144.85;100.00;61331.59;5102941;28;32433;-74
2023/06/04 09:16:52;;;;;;;2.08;1.30;;;;;;;-144.85;100.00;61331.59;5093262;28;32294;-74
2023/06/04 09:19:19;;;;;;;3.30;1.50;;;;;;;-144.85;100.00;61331.59;5102558;28;32203;-74
2023/06/04 09:21:50;;;;;;;3.63;1.35;;;;;;;-144.85;100.00;61331.59;5103319;28;31982;-74
2023/06/04 09:24:23;;;;;;;2.60;1.38;;;;;;;-144.85;100.00;61331.59;5099170;28;32157;-73
2023/06/04 09:26:50;;;;;;;3.35;1.38;;;;;;;-144.85;100.00;61331.59;5067162;28;33222;-74
2023/06/04 09:29:18;;;;;;;2.80;1.27;;;;;;;-144.85;100.00;61331.59;5087337;28;32632;-74
2023/06/04 09:31:47;;;;;;;4.28;1.20;;;;;;;-144.85;100.00;61331.59;5099824;28;31601;-74
2023/06/04 09:34:14;;;;;;;3.42;1.30;;;;;;;-144.85;100.00;61331.59;5099154;28;32323;-74
2023/06/04 09:36:42;;;;;;;2.65;1.35;;;;;;;-144.85;100.00;61331.59;5044258;28;32412;-74
2023/06/04 09:39:16;;;;;;;2.50;1.30;;;;;;;-144.85;100.00;61331.59;5077807;28;31773;-75
2023/06/04 09:41:44;;;;;;;3.20;1.38;;;;;;;-144.85;100.00;61331.59;5097691;28;31676;-74
2023/06/04 09:44:12;;;;;;;2.63;1.40;;;;;;;-144.85;100.00;61331.59;5067349;28;32213;-75
2023/06/04 09:46:39;;;;;;;3.33;1.30;;;;;;;-144.85;100.00;61331.59;5099420;28;33693;-74
2023/06/04 09:49:06;;;;;;;3.50;1.40;;;;;;;-144.85;100.00;61331.59;5080320;28;31059;-74
2023/06/04 09:51:33;;;;;;;2.03;1.30;;;;;;;-144.85;100.00;61331.59;5102163;28;32396;-75
2023/06/04 09:54:03;;;;;;;2.67;1.33;;;;;;;-144.85;100.00;61331.59;5073854;28;32031;-74
2023/06/04 09:56:39;;;;;;;1.40;0.90;;;;;;;-144.85;100.00;61331.59;5098701;28;32271;-74
2023/06/04 09:59:09;;;;;;;3.67;1.10;;;;;;;-144.85;100.00;61331.59;5051991;28;30926;-74
2023/06/04 10:01:43;;;;;;;2.83;0.90;;;;;;;-144.85;100.00;61331.59;5103770;28;30838;-74
2023/06/04 10:04:13;;;;;;;2.55;1.15;;;;;;;-144.85;100.00;61331.59;5090377;28;32968;-74
2023/06/04 10:06:41;;;;;;;3.28;1.00;;;;;;;-144.85;100.00;61331.59;5110492;28;32045;-74
2023/06/04 10:09:09;;;;;;;2.08;0.90;;;;;;;-144.85;100.00;61331.59;5104016;28;31593;-74
2023/06/04 10:11:55;;;;;;;3.35;1.00;;;;;;;-144.85;100.00;61331.59;5099398;28;32266;-74
2023/06/04 10:14:25;;;;;;;2.60;0.90;;;;;;;-144.85;100.00;61331.59;5066490;28;32729;-75
2023/06/04 10:16:56;;;;;;;2.25;0.90;;;;;;;-144.85;100.00;61331.59;5099046;28;33330;-74
2023/06/04 10:19:24;;;;;;;1.52;0.90;;;;;;;-144.85;100.00;61331.59;5099031;28;32244;-74
2023/06/04 10:21:52;;;;;;;3.05;1.00;;;;;;;-144.85;100.00;61331.59;5106999;28;32599;-73
2023/06/04 10:24:20;;;;;;;2.25;1.10;;;;;;;-144.85;100.00;61331.59;5084883;28;31560;-74
2023/06/04 10:26:48;;;;;;;1.90;1.00;;;;;;;-144.85;100.00;61331.59;5085968;28;31306;-75
2023/06/04 10:29:17;;;;;;;2.47;1.10;;;;;;;-144.85;100.00;61331.59;5085964;28;30787;-74
2023/06/04 10:31:45;;;;;;;1.58;1.02;;;;;;;-144.85;100.00;61331.59;5101775;28;31454;-74
2023/06/04 10:34:14;;;;;;;5.40;1.10;;;;;;;-144.85;100.00;61331.59;5100227;28;33877;-75
2023/06/04 10:36:45;;;;;;;1.65;1.00;;;;;;;-144.85;100.00;61331.59;5102515;28;32929;-74
2023/06/04 10:39:12;;;;;;;1.52;1.00;;;;;;;-144.85;100.00;61331.59;5101646;28;32193;-74
2023/06/04 10:41:40;;;;;;;1.30;0.90;;;;;;;-144.85;100.00;61331.59;5086003;28;30491;-74
2023/06/04 10:44:07;;;;;;;2.95;1.10;;;;;;;-144.85;100.00;61331.59;5074469;28;31407;-74
2023/06/04 10:46:41;;;;;;;2.60;1.10;;;;;;;-144.85;100.00;61331.59;5105191;28;32425;-74
2023/06/04 10:49:14;;;;;;;2.00;1.00;;;;;;;-144.85;100.00;61331.59;5084922;28;31757;-75
2023/06/04 10:51:43;;;;;;;3.38;1.10;;;;;;;-144.85;100.00;61331.59;5085561;28;32228;-74
2023/06/04 10:54:21;;;;;;;1.83;1.10;;;;;;;-144.85;100.00;61331.59;5079431;28;32584;-74
2023/06/04 10:56:48;;;;;;;2.10;1.08;;;;;;;-144.85;100.00;61331.59;5094509;28;31554;-74
2023/06/04 10:59:17;;;;;;;4.13;1.20;;;;;;;-144.85;100.00;61331.59;5062322;28;32510;-74
2023/06/04 11:01:45;;;;;;;2.38;1.08;;;;;;;-144.85;100.00;61331.59;5098806;28;32590;-74
2023/06/04 11:04:20;;;;;;;1.73;1.00;;;;;;;-144.85;100.00;61331.59;5064148;28;32590;-73
2023/06/04 11:07:00;;;;;;;3.35;1.35;;;;;;;-144.85;100.00;61331.59;5066185;28;33013;-73
2023/06/04 11:09:28;;;;;;;3.13;1.20;;;;;;;-144.85;100.00;61331.59;5094408;28;30670;-74
2023/06/04 11:11:59;;;;;;;2.15;1.10;;;;;;;-144.85;100.00;61331.59;5097953;28;32768;-74
2023/06/04 11:14:26;;;;;;;1.50;1.15;;;;;;;-144.85;100.00;61331.59;5097334;28;31980;-73
2023/06/04 11:16:53;;;;;;;4.05;1.27;;;;;;;-144.85;100.00;61331.59;5084909;28;30942;-74